Time;durP1;ratioP1;P1;durP2;ratioP2;P2;SDS_P1;SDS_P2;PMS_P1;PMS_P2;Temp;Humidity;BMP_temperature;BMP_pressure;BME280_temperature;BME280_humidity;BME280_pressure;Samples;Min_cycle;Max_cycle;Signal;HPM_P1;HPM_P2
2022/10/29 00:01:06;;;;;;;0.45;0.30;;;22.90;99.90;;;;;;5070957;28;20197;-77
2022/10/29 00:03:38;;;;;;;0.85;0.30;;;23.00;99.90;;;;;;5072688;28;20211;-79
2022/10/29 00:06:12;;;;;;;1.63;0.40;;;23.20;99.90;;;;;;5073055;28;20191;-78
2022/10/29 00:08:43;;;;;;;0.68;0.30;;;23.00;99.90;;;;;;5073061;28;20549;-79
2022/10/29 00:11:16;;;;;;;1.63;0.30;;;22.90;99.90;;;;;;5072371;28;20290;-79
2022/10/29 00:13:49;;;;;;;1.13;0.45;;;23.00;99.90;;;;;;5072163;28;20195;-78
2022/10/29 00:16:21;;;;;;;0.95;0.20;;;23.10;99.90;;;;;;5072433;28;20560;-77
2022/10/29 00:18:52;;;;;;;0.75;0.30;;;23.20;99.90;;;;;;5072502;28;20189;-76
2022/10/29 00:21:24;;;;;;;2.70;0.40;;;23.40;99.90;;;;;;5069625;28;20207;-77
2022/10/29 00:23:55;;;;;;;0.38;0.25;;;23.60;99.90;;;;;;5072659;28;20195;-77
2022/10/29 00:26:26;;;;;;;1.08;0.47;;;23.90;99.90;;;;;;5071423;28;20196;-79
2022/10/29 00:28:59;;;;;;;1.02;0.43;;;24.00;99.90;;;;;;5072348;28;20220;-78
2022/10/29 00:31:30;;;;;;;0.60;0.30;;;24.00;99.90;;;;;;5071684;28;20217;-78
2022/10/29 00:34:01;;;;;;;0.70;0.30;;;23.80;99.90;;;;;;5069678;28;20192;-77
2022/10/29 00:36:32;;;;;;;1.65;0.40;;;23.70;99.90;;;;;;5071743;28;20192;-77
2022/10/29 00:39:03;;;;;;;1.20;0.40;;;23.70;99.90;;;;;;5069967;28;20187;-79
2022/10/29 00:41:34;;;;;;;0.85;0.25;;;23.80;99.90;;;;;;5069173;28;20199;-81
2022/10/29 00:44:37;;;;;;;0.10;0.10;;;23.90;99.90;;;;;;5071728;28;20738;-77
2022/10/29 00:47:20;;;;;;;1.17;0.20;;;23.90;99.90;;;;;;5009206;28;20198;-76
2022/10/29 00:49:54;;;;;;;2.35;0.30;;;24.00;99.90;;;;;;5066480;28;20201;-79
2022/10/29 00:52:30;;;;;;;1.83;0.30;;;24.20;99.90;;;;;;5071333;28;20219;-83
2022/10/29 00:55:04;;;;;;;1.10;0.30;;;24.30;99.90;;;;;;5072242;28;20210;-83
2022/10/29 00:57:40;;;;;;;1.20;0.30;;;24.30;99.90;;;;;;5068857;28;20631;-78
2022/10/29 01:00:15;;;;;;;0.30;0.20;;;24.30;99.90;;;;;;5070791;28;20284;-79
2022/10/29 01:02:46;;;;;;;0.90;0.30;;;24.30;99.90;;;;;;5072229;28;20184;-79
2022/10/29 01:05:21;;;;;;;0.32;0.10;;;24.30;99.90;;;;;;5072055;28;20196;-80
2022/10/29 01:07:52;;;;;;;0.88;0.20;;;24.40;99.90;;;;;;5072323;28;20187;-78
2022/10/29 01:10:29;;;;;;;1.08;0.20;;;24.40;99.90;;;;;;5072151;28;20185;-77
2022/10/29 01:13:14;;;;;;;1.35;0.30;;;24.40;99.90;;;;;;5071744;28;20209;-80
2022/10/29 01:15:55;;;;;;;0.47;0.30;;;24.60;99.90;;;;;;5069919;28;20181;-81
2022/10/29 01:18:32;;;;;;;2.33;0.45;;;24.50;99.90;;;;;;5071360;28;20212;-79
2022/10/29 01:21:49;;;;;;;0.55;0.28;;;24.60;99.90;;;;;;5069427;28;20641;-81
2022/10/29 01:24:54;;;;;;;3.00;0.20;;;24.80;99.90;;;;;;5071569;28;20205;-79
2022/10/29 01:27:57;;;;;;;0.55;0.25;;;24.90;99.90;;;;;;5070636;28;20191;-73
2022/10/29 01:30:44;;;;;;;0.90;0.20;;;24.90;99.90;;;;;;5070903;28;20212;-76
2022/10/29 01:33:23;;;;;;;0.85;0.30;;;24.80;99.90;;;;;;5070969;28;20213;-78
2022/10/29 01:35:59;;;;;;;0.75;0.40;;;24.80;99.90;;;;;;5072044;28;20242;-79
2022/10/29 01:38:38;;;;;;;0.47;0.22;;;24.90;99.90;;;;;;5071612;28;20189;-80
2022/10/29 01:41:15;;;;;;;0.90;0.30;;;24.70;99.90;;;;;;5069935;28;20189;-80
2022/10/29 01:43:51;;;;;;;1.42;0.20;;;24.70;99.90;;;;;;5060584;28;20192;-82
2022/10/29 01:46:25;;;;;;;0.60;0.30;;;24.80;99.90;;;;;;5071733;28;20185;-77
2022/10/29 01:49:06;;;;;;;1.23;0.20;;;24.80;99.90;;;;;;5073687;28;20185;-78
2022/10/29 01:51:39;;;;;;;0.40;0.20;;;24.80;99.90;;;;;;5072176;28;20671;-80
2022/10/29 01:54:12;;;;;;;0.85;0.30;;;24.90;99.90;;;;;;5075406;28;20186;-77
2022/10/29 01:56:43;;;;;;;0.65;0.20;;;24.90;99.90;;;;;;5075220;28;20195;-76
2022/10/29 01:59:16;;;;;;;0.90;0.30;;;24.80;99.90;;;;;;5075433;28;20197;-74
2022/10/29 02:02:00;;;;;;;1.90;0.30;;;25.00;99.90;;;;;;5075550;28;20545;-76
2022/10/29 02:04:55;;;;;;;0.25;0.20;;;25.00;99.90;;;;;;5072699;28;20215;-74
2022/10/29 02:07:39;;;;;;;0.80;0.30;;;24.80;99.90;;;;;;5074303;28;20640;-78
2022/10/29 02:10:20;;;;;;;0.32;0.20;;;24.70;99.90;;;;;;5074644;28;20181;-78
2022/10/29 02:12:53;;;;;;;1.05;0.20;;;24.80;99.90;;;;;;5075253;28;20235;-77
2022/10/29 02:15:29;;;;;;;0.30;0.25;;;25.10;99.90;;;;;;5075713;28;20221;-78
2022/10/29 02:18:02;;;;;;;0.40;0.20;;;25.00;99.90;;;;;;5075990;28;20211;-77
2022/10/29 02:20:35;;;;;;;1.17;0.20;;;25.10;99.90;;;;;;5055782;28;20186;-75
2022/10/29 02:23:06;;;;;;;2.67;0.40;;;25.20;99.90;;;;;;5055639;28;20205;-81
2022/10/29 02:25:37;;;;;;;0.47;0.30;;;25.20;99.90;;;;;;5055575;28;20194;-77
2022/10/29 02:28:07;;;;;;;0.98;0.30;;;25.10;99.90;;;;;;5055736;28;20186;-75
2022/10/29 02:30:38;;;;;;;0.77;0.25;;;25.10;99.90;;;;;;5068149;28;20575;-77
2022/10/29 02:33:09;;;;;;;0.32;0.30;;;25.20;99.90;;;;;;5075730;28;20217;-76
2022/10/29 02:35:42;;;;;;;1.65;0.28;;;25.10;99.80;;;;;;5075200;28;20193;-78
2022/10/29 02:38:12;;;;;;;1.65;0.40;;;25.20;99.90;;;;;;5074909;28;20632;-77
2022/10/29 02:40:43;;;;;;;0.85;0.40;;;25.40;99.90;;;;;;5075008;28;20193;-77
2022/10/29 02:43:14;;;;;;;0.30;0.30;;;25.50;99.90;;;;;;5074895;28;20189;-77
2022/10/29 02:45:45;;;;;;;1.65;0.28;;;25.70;99.90;;;;;;5075090;28;20606;-76
2022/10/29 02:48:15;;;;;;;0.80;0.52;;;25.80;99.90;;;;;;5075274;28;20557;-77
2022/10/29 02:50:48;;;;;;;0.50;0.20;;;25.90;99.90;;;;;;5075298;28;20521;-77
2022/10/29 02:53:19;;;;;;;0.57;0.40;;;25.90;99.90;;;;;;5074494;28;20217;-75
2022/10/29 02:55:50;;;;;;;1.00;0.30;;;25.70;99.90;;;;;;5074571;28;20276;-75
2022/10/29 02:58:20;;;;;;;2.85;1.23;;;25.60;99.90;;;;;;5067204;28;20198;-77
2022/10/29 03:00:53;;;;;;;4.13;2.20;;;25.40;99.90;;;;;;5054913;28;20228;-76
2022/10/29 03:03:24;;;;;;;2.22;1.40;;;25.40;99.80;;;;;;5061213;28;20664;-79
2022/10/29 03:05:57;;;;;;;0.43;0.30;;;25.40;99.70;;;;;;5074656;28;20184;-74
2022/10/29 03:08:27;;;;;;;1.35;0.40;;;25.50;99.00;;;;;;5074742;28;20185;-74
2022/10/29 03:10:58;;;;;;;0.38;0.20;;;25.50;99.60;;;;;;5074825;28;20198;-73
2022/10/29 03:13:29;;;;;;;0.20;0.13;;;25.60;99.90;;;;;;5074836;28;20223;-80
2022/10/29 03:16:00;;;;;;;1.85;0.38;;;25.80;99.90;;;;;;5075288;28;20201;-76
2022/10/29 03:18:30;;;;;;;1.25;0.22;;;25.90;99.90;;;;;;5074659;28;20199;-76
2022/10/29 03:21:03;;;;;;;8.40;2.33;;;25.80;99.90;;;;;;5074432;28;20188;-73
2022/10/29 03:23:34;;;;;;;4.13;0.98;;;25.90;99.90;;;;;;5074499;28;20184;-74
2022/10/29 03:26:05;;;;;;;2.40;0.50;;;25.80;99.90;;;;;;5074598;28;20193;-75
2022/10/29 03:28:36;;;;;;;0.43;0.22;;;25.80;99.90;;;;;;5074605;28;20189;-77
2022/10/29 03:31:06;;;;;;;0.45;0.32;;;25.70;99.20;;;;;;5074044;28;20236;-77
2022/10/29 03:33:38;;;;;;;0.63;0.30;;;25.90;99.00;;;;;;5074537;28;20702;-75
2022/10/29 03:36:11;;;;;;;0.10;0.10;;;25.90;99.10;;;;;;5072282;28;20203;-79
2022/10/29 03:38:42;;;;;;;0.32;0.22;;;26.10;97.90;;;;;;5074312;28;20192;-80
2022/10/29 03:41:13;;;;;;;0.95;0.30;;;26.00;97.60;;;;;;5074455;28;20280;-76
2022/10/29 03:43:46;;;;;;;0.50;0.40;;;25.90;97.60;;;;;;5074434;28;20185;-80
2022/10/29 03:46:17;;;;;;;0.50;0.30;;;25.80;98.40;;;;;;5072721;28;20221;-78
2022/10/29 03:48:51;;;;;;;1.65;0.30;;;25.70;97.80;;;;;;5070460;28;20193;-78
2022/10/29 03:51:23;;;;;;;1.08;0.30;;;25.80;97.60;;;;;;5069848;28;20201;-76
2022/10/29 03:53:54;;;;;;;1.17;0.22;;;25.90;98.30;;;;;;5072980;28;20224;-78
2022/10/29 03:56:25;;;;;;;0.35;0.30;;;25.90;97.80;;;;;;5076990;28;20200;-77
2022/10/29 03:58:56;;;;;;;0.82;0.22;;;26.10;97.20;;;;;;5065230;28;20197;-75
2022/10/29 04:01:26;;;;;;;1.55;0.40;;;26.00;97.50;;;;;;5073033;28;20197;-77
2022/10/29 04:03:57;;;;;;;0.20;0.20;;;25.90;96.70;;;;;;5072008;28;20185;-78
2022/10/29 04:06:30;;;;;;;0.25;0.15;;;26.00;97.20;;;;;;5072274;28;20197;-72
2022/10/29 04:09:00;;;;;;;0.40;0.20;;;25.90;96.80;;;;;;5073423;28;20207;-72
2022/10/29 04:11:31;;;;;;;1.30;0.25;;;26.00;97.50;;;;;;5072742;28;20189;-79
2022/10/29 04:14:02;;;;;;;0.52;0.25;;;26.10;96.90;;;;;;5073394;28;20232;-83
2022/10/29 04:16:33;;;;;;;1.92;0.52;;;26.20;97.40;;;;;;5086339;28;20200;-76
2022/10/29 04:19:04;;;;;;;0.57;0.20;;;26.30;96.80;;;;;;5072863;28;20189;-78
2022/10/29 04:21:36;;;;;;;0.20;0.10;;;26.40;96.50;;;;;;5058695;28;20197;-78
2022/10/29 04:24:07;;;;;;;1.25;0.20;;;26.30;96.80;;;;;;5065869;28;20659;-76
2022/10/29 04:26:38;;;;;;;1.30;0.20;;;26.40;96.70;;;;;;5072454;28;20580;-77
2022/10/29 04:29:09;;;;;;;0.73;0.10;;;26.40;96.10;;;;;;5073095;28;20188;-77
2022/10/29 04:31:40;;;;;;;0.20;0.10;;;26.30;94.40;;;;;;5073915;28;20203;-75
2022/10/29 04:34:10;;;;;;;0.15;0.13;;;26.20;94.50;;;;;;5069953;28;20219;-79
2022/10/29 04:36:43;;;;;;;0.65;0.20;;;26.30;94.40;;;;;;5070998;28;20211;-76
2022/10/29 04:39:14;;;;;;;1.25;0.20;;;26.30;94.40;;;;;;5061643;28;20200;-75
2022/10/29 04:41:44;;;;;;;0.47;0.20;;;26.30;94.10;;;;;;5086580;28;20193;-74
2022/10/29 04:44:15;;;;;;;0.20;0.13;;;26.30;94.00;;;;;;5080883;28;20244;-74
2022/10/29 04:46:46;;;;;;;0.28;0.20;;;26.30;93.50;;;;;;5080839;28;20651;-77
2022/10/29 04:49:17;;;;;;;1.00;0.30;;;26.30;93.90;;;;;;5073004;28;20272;-74
2022/10/29 04:51:49;;;;;;;1.42;0.22;;;26.40;93.70;;;;;;5072257;28;20197;-75
2022/10/29 04:54:20;;;;;;;0.52;0.30;;;26.40;93.90;;;;;;5072177;28;20225;-77
2022/10/29 04:56:51;;;;;;;0.80;0.30;;;26.50;93.60;;;;;;5072049;28;20272;-77
2022/10/29 04:59:21;;;;;;;0.40;0.30;;;26.50;93.50;;;;;;5073005;28;20189;-74
2022/10/29 05:01:52;;;;;;;0.20;0.20;;;26.40;92.60;;;;;;5073204;28;20215;-77
2022/10/29 05:04:23;;;;;;;2.45;0.22;;;26.40;93.30;;;;;;5072930;28;20189;-74
2022/10/29 05:06:56;;;;;;;0.85;0.20;;;26.50;92.60;;;;;;5071963;28;20191;-78
2022/10/29 05:09:26;;;;;;;0.17;0.10;;;26.40;92.10;;;;;;5073434;28;20185;-83
2022/10/29 05:11:57;;;;;;;1.50;0.30;;;26.30;91.40;;;;;;5064597;28;20336;-73
2022/10/29 05:14:28;;;;;;;0.20;0.10;;;26.30;92.50;;;;;;5072635;28;20235;-75
2022/10/29 05:16:59;;;;;;;0.20;0.20;;;26.30;91.60;;;;;;5072742;28;20199;-75
2022/10/29 05:19:29;;;;;;;0.65;0.20;;;26.20;91.40;;;;;;5073852;28;20208;-76
2022/10/29 05:22:02;;;;;;;0.10;0.10;;;26.20;91.50;;;;;;5072222;28;20193;-79
2022/10/29 05:24:33;;;;;;;0.17;0.17;;;26.20;91.20;;;;;;5076841;28;20283;-79
2022/10/29 05:27:03;;;;;;;1.27;0.30;;;26.10;91.50;;;;;;5076670;28;20672;-78
2022/10/29 05:29:34;;;;;;;1.63;0.40;;;26.10;91.00;;;;;;5074299;28;20213;-80
2022/10/29 05:32:05;;;;;;;2.15;1.30;;;26.20;91.70;;;;;;5086326;28;20200;-79
2022/10/29 05:34:36;;;;;;;3.47;1.98;;;26.30;91.60;;;;;;5084174;28;20208;-80
2022/10/29 05:37:09;;;;;;;0.30;0.30;;;26.20;91.60;;;;;;5080598;28;20205;-76
2022/10/29 05:39:39;;;;;;;0.55;0.32;;;26.20;92.10;;;;;;5088273;28;20222;-77
2022/10/29 05:42:10;;;;;;;2.60;0.30;;;26.20;92.50;;;;;;5056641;28;20216;-77
2022/10/29 05:44:41;;;;;;;0.20;0.20;;;26.30;93.00;;;;;;5070278;28;20590;-79
2022/10/29 05:47:12;;;;;;;1.25;0.30;;;26.30;93.60;;;;;;5085115;28;20649;-78
2022/10/29 05:49:43;;;;;;;0.98;0.20;;;26.30;92.60;;;;;;5067590;28;20200;-78
2022/10/29 05:52:16;;;;;;;0.22;0.22;;;26.30;92.10;;;;;;5086098;28;20196;-80
2022/10/29 05:54:46;;;;;;;1.30;0.20;;;26.10;91.80;;;;;;5092065;28;20205;-80
2022/10/29 05:57:17;;;;;;;0.80;0.50;;;26.10;92.80;;;;;;5076047;28;20286;-79
2022/10/29 05:59:48;;;;;;;0.65;0.47;;;26.10;92.50;;;;;;5074908;28;20193;-78
2022/10/29 06:02:19;;;;;;;1.38;0.38;;;26.10;92.50;;;;;;5072459;28;20203;-81
2022/10/29 06:04:49;;;;;;;1.00;0.40;;;26.10;92.90;;;;;;5070412;28;20564;-80
2022/10/29 06:07:22;;;;;;;0.45;0.22;;;26.10;92.00;;;;;;5072829;28;20562;-73
2022/10/29 06:09:53;;;;;;;0.30;0.20;;;26.10;92.10;;;;;;5072251;28;20207;-73
2022/10/29 06:12:23;;;;;;;1.70;0.30;;;26.10;92.30;;;;;;5077306;28;20219;-74
2022/10/29 06:14:54;;;;;;;0.20;0.20;;;25.90;92.20;;;;;;5073531;28;20480;-79
2022/10/29 06:17:25;;;;;;;0.70;0.30;;;26.00;92.50;;;;;;5088178;28;20682;-78
2022/10/29 06:19:56;;;;;;;0.65;0.35;;;25.90;92.70;;;;;;5091355;28;20206;-78
2022/10/29 06:22:28;;;;;;;0.55;0.20;;;25.90;92.70;;;;;;5080948;28;20197;-77
2022/10/29 06:24:59;;;;;;;0.90;0.32;;;25.90;93.10;;;;;;5071975;28;20200;-78
2022/10/29 06:27:30;;;;;;;0.28;0.28;;;25.80;93.20;;;;;;5074373;28;20562;-75
2022/10/29 06:30:00;;;;;;;2.03;1.40;;;25.80;93.00;;;;;;5078828;28;20216;-75
2022/10/29 06:32:31;;;;;;;2.05;0.50;;;25.70;93.40;;;;;;5073609;28;20197;-75
2022/10/29 06:35:02;;;;;;;0.50;0.50;;;25.80;93.80;;;;;;5080755;28;20691;-78
2022/10/29 06:37:38;;;;;;;0.55;0.30;;;25.70;93.20;;;;;;5090995;28;20682;-84
2022/10/29 06:40:10;;;;;;;1.83;0.43;;;25.70;93.60;;;;;;5092985;28;20206;-78
2022/10/29 06:42:45;;;;;;;0.45;0.20;;;25.70;93.60;;;;;;5089208;28;20200;-77
2022/10/29 06:45:27;;;;;;;2.35;0.30;;;25.60;93.00;;;;;;5077855;28;20318;-76
2022/10/29 06:47:58;;;;;;;1.10;0.22;;;25.50;93.40;;;;;;5079432;28;20200;-74
2022/10/29 06:50:30;;;;;;;3.40;0.30;;;25.40;93.60;;;;;;5073372;28;20201;-74
2022/10/29 06:53:15;;;;;;;0.20;0.20;;;25.30;93.80;;;;;;5074028;28;20197;-76
2022/10/29 06:55:45;;;;;;;0.40;0.32;;;25.30;94.00;;;;;;5084248;28;20294;-75
2022/10/29 06:58:17;;;;;;;0.70;0.50;;;25.20;94.80;;;;;;5073859;28;20193;-74
2022/10/29 07:00:49;;;;;;;0.57;0.57;;;25.20;94.10;;;;;;5092235;28;20222;-75
2022/10/29 07:03:21;;;;;;;0.70;0.50;;;25.10;94.40;;;;;;5075960;28;20204;-77
2022/10/29 07:05:58;;;;;;;1.27;0.43;;;25.00;95.30;;;;;;5082875;28;20219;-79
2022/10/29 07:08:32;;;;;;;1.85;0.60;;;24.90;95.40;;;;;;5076659;28;20290;-77
2022/10/29 07:11:03;;;;;;;1.35;0.43;;;24.90;95.90;;;;;;5072601;28;20265;-79
2022/10/29 07:13:35;;;;;;;1.83;0.38;;;24.80;95.80;;;;;;5071268;28;20254;-77
2022/10/29 07:16:06;;;;;;;0.57;0.50;;;24.80;95.90;;;;;;5079216;28;20610;-77
2022/10/29 07:18:37;;;;;;;2.20;0.60;;;24.80;96.20;;;;;;5074104;28;20201;-76
2022/10/29 07:21:08;;;;;;;1.80;0.30;;;24.70;96.10;;;;;;5073952;28;20196;-78
2022/10/29 07:23:41;;;;;;;0.57;0.30;;;24.60;96.20;;;;;;5070242;28;20674;-80
2022/10/29 07:26:11;;;;;;;0.45;0.32;;;24.50;96.30;;;;;;5072463;28;20196;-77
2022/10/29 07:28:42;;;;;;;1.10;0.40;;;24.40;96.30;;;;;;5073553;28;20193;-80
2022/10/29 07:31:13;;;;;;;1.52;0.40;;;24.30;96.40;;;;;;5072699;28;20275;-77
2022/10/29 07:33:44;;;;;;;2.15;0.40;;;24.20;96.50;;;;;;5078449;28;20228;-80
2022/10/29 07:36:15;;;;;;;2.17;0.38;;;24.10;96.50;;;;;;5072976;28;20199;-81
2022/10/29 07:38:47;;;;;;;1.35;0.75;;;24.10;97.20;;;;;;5077549;28;20197;-76
2022/10/29 07:41:18;;;;;;;0.95;0.50;;;24.00;96.50;;;;;;5075469;28;20211;-79
2022/10/29 07:43:49;;;;;;;1.05;0.40;;;23.90;96.60;;;;;;5073395;28;20235;-78
2022/10/29 07:46:20;;;;;;;1.05;0.45;;;23.90;96.50;;;;;;5068126;28;20201;-77
2022/10/29 07:48:51;;;;;;;1.73;0.75;;;23.80;96.70;;;;;;5071463;28;20201;-80
2022/10/29 07:51:22;;;;;;;0.60;0.40;;;23.80;96.70;;;;;;5077317;28;20197;-78
2022/10/29 07:53:54;;;;;;;0.82;0.40;;;23.70;97.10;;;;;;5073422;28;20219;-77
2022/10/29 07:56:25;;;;;;;2.17;0.50;;;23.70;97.10;;;;;;5069809;28;20671;-80
2022/10/29 07:58:56;;;;;;;1.10;0.32;;;23.70;96.50;;;;;;5075326;28;20231;-74
2022/10/29 08:01:27;;;;;;;0.88;0.50;;;23.60;96.70;;;;;;5076028;28;20193;-79
2022/10/29 08:03:57;;;;;;;1.40;0.40;;;23.60;96.80;;;;;;5071537;28;20204;-77
2022/10/29 08:06:28;;;;;;;34.58;28.85;;;23.50;97.10;;;;;;5068709;28;20189;-77
2022/10/29 08:09:01;;;;;;;4.20;2.65;;;23.40;97.20;;;;;;5069247;28;20193;-78
2022/10/29 08:11:33;;;;;;;1.52;1.00;;;23.30;97.50;;;;;;5077289;28;20189;-78
2022/10/29 08:14:03;;;;;;;1.15;0.90;;;23.20;97.20;;;;;;5071778;28;20216;-78
2022/10/29 08:16:34;;;;;;;1.23;0.60;;;23.10;97.50;;;;;;5070754;28;20204;-77
2022/10/29 08:19:05;;;;;;;0.60;0.60;;;23.00;97.50;;;;;;5071918;28;20678;-77
2022/10/29 08:21:36;;;;;;;2.53;0.80;;;22.90;97.30;;;;;;5067493;28;20644;-74
2022/10/29 08:24:09;;;;;;;0.73;0.50;;;22.90;97.70;;;;;;5070088;28;20201;-73
2022/10/29 08:26:42;;;;;;;1.30;0.50;;;22.80;97.10;;;;;;5069551;28;20192;-78
2022/10/29 08:29:13;;;;;;;2.08;0.70;;;22.80;97.40;;;;;;5071220;28;20228;-74
2022/10/29 08:31:45;;;;;;;0.90;0.60;;;22.70;97.30;;;;;;5071275;28;20211;-76
2022/10/29 08:34:16;;;;;;;2.45;0.93;;;22.70;97.30;;;;;;5073427;28;20234;-75
2022/10/29 08:36:47;;;;;;;1.08;0.68;;;22.60;97.60;;;;;;5070762;28;20204;-72
2022/10/29 08:39:19;;;;;;;2.63;0.70;;;22.60;97.60;;;;;;5065235;28;20210;-77
2022/10/29 08:42:01;;;;;;;1.10;0.70;;;22.50;97.70;;;;;;5072800;28;20200;-75
2022/10/29 08:45:03;;;;;;;2.13;0.52;;;22.50;97.90;;;;;;5063972;28;20246;-75
2022/10/29 08:47:43;;;;;;;2.38;0.70;;;22.50;98.10;;;;;;5076815;28;20196;-76
2022/10/29 08:50:24;;;;;;;0.93;0.70;;;22.40;98.40;;;;;;5065386;28;20245;-77
2022/10/29 08:52:56;;;;;;;1.17;0.88;;;22.30;98.30;;;;;;5069224;28;20193;-77
2022/10/29 08:55:35;;;;;;;1.35;0.68;;;22.30;98.50;;;;;;5070917;28;20216;-79
2022/10/29 08:58:19;;;;;;;1.30;0.60;;;22.30;99.00;;;;;;5072462;28;22041;-76
2022/10/29 09:00:54;;;;;;;1.52;0.50;;;22.20;99.00;;;;;;5066168;28;20197;-77
2022/10/29 09:03:26;;;;;;;1.30;0.40;;;22.10;99.10;;;;;;5075052;28;20698;-79
2022/10/29 09:06:07;;;;;;;1.17;0.47;;;22.00;99.20;;;;;;5067061;28;20226;-76
2022/10/29 09:08:53;;;;;;;1.70;0.80;;;21.90;99.50;;;;;;5071290;28;20214;-76
2022/10/29 09:11:45;;;;;;;1.92;0.60;;;21.90;99.70;;;;;;5071288;28;20196;-77
2022/10/29 09:14:48;;;;;;;1.10;0.60;;;21.80;99.90;;;;;;5070645;28;20231;-76
2022/10/29 09:17:28;;;;;;;0.70;0.60;;;21.80;99.90;;;;;;5060971;28;20212;-76
2022/10/29 09:20:15;;;;;;;1.23;0.60;;;21.70;99.90;;;;;;5068669;28;20184;-77
2022/10/29 09:22:55;;;;;;;0.80;0.40;;;21.60;99.90;;;;;;5069924;28;20192;-75
2022/10/29 09:25:32;;;;;;;1.70;0.60;;;21.50;99.90;;;;;;5070666;28;20197;-77
2022/10/29 09:28:18;;;;;;;0.80;0.50;;;21.50;99.90;;;;;;5074298;28;20574;-76
2022/10/29 09:30:58;;;;;;;3.60;0.60;;;21.40;99.90;;;;;;5068404;28;20212;-78
2022/10/29 09:33:30;;;;;;;1.30;0.40;;;21.40;99.90;;;;;;5070356;28;20188;-77
2022/10/29 09:36:02;;;;;;;4.53;0.52;;;21.30;99.90;;;;;;5069112;28;20211;-78
2022/10/29 09:38:36;;;;;;;2.55;0.60;;;21.20;99.90;;;;;;5073219;28;20259;-75
2022/10/29 09:41:07;;;;;;;1.50;0.50;;;21.20;99.90;;;;;;5072326;28;20211;-78
2022/10/29 09:43:44;;;;;;;0.50;0.50;;;21.20;99.90;;;;;;5066254;28;20193;-76
2022/10/29 09:46:23;;;;;;;39.70;25.40;;;21.10;99.90;;;;;;5077758;28;20204;-81
2022/10/29 09:49:02;;;;;;;6.55;3.10;;;21.10;99.90;;;;;;5070916;28;20641;-76
2022/10/29 09:51:42;;;;;;;3.40;2.10;;;21.10;99.90;;;;;;5062403;28;20212;-80
2022/10/29 09:54:13;;;;;;;2.10;0.97;;;21.00;99.90;;;;;;5069870;28;20196;-77
2022/10/29 09:56:46;;;;;;;1.73;0.70;;;21.00;99.90;;;;;;5071741;28;20208;-75
2022/10/29 09:59:29;;;;;;;1.75;0.90;;;21.00;99.90;;;;;;5071098;28;20681;-77
2022/10/29 10:02:01;;;;;;;1.58;0.57;;;20.90;99.90;;;;;;5070602;28;20192;-76
2022/10/29 10:04:36;;;;;;;1.48;0.70;;;20.90;99.90;;;;;;5069742;28;20201;-76
2022/10/29 10:07:08;;;;;;;0.93;0.60;;;20.90;99.90;;;;;;5068424;28;20663;-77
2022/10/29 10:09:56;;;;;;;2.53;0.60;;;20.80;99.90;;;;;;5068145;28;20566;-77
2022/10/29 10:12:30;;;;;;;1.63;0.50;;;20.80;99.90;;;;;;5071311;28;20193;-76
2022/10/29 10:15:24;;;;;;;1.00;0.63;;;20.70;99.90;;;;;;5066300;28;20240;-76
2022/10/29 10:18:00;;;;;;;0.70;0.60;;;20.70;99.90;;;;;;5071574;28;20219;-75
2022/10/29 10:20:39;;;;;;;1.25;0.52;;;20.70;99.90;;;;;;5078120;28;20205;-76
2022/10/29 10:23:26;;;;;;;1.65;0.45;;;20.70;99.90;;;;;;5071651;28;20214;-81
2022/10/29 10:25:58;;;;;;;0.98;0.70;;;20.60;99.90;;;;;;5072891;28;20192;-75
2022/10/29 10:28:30;;;;;;;2.63;0.70;;;20.60;99.90;;;;;;5073525;28;20193;-76
2022/10/29 10:31:14;;;;;;;1.85;0.50;;;20.60;99.90;;;;;;5072959;28;20215;-76
2022/10/29 10:33:53;;;;;;;1.25;0.73;;;20.50;99.90;;;;;;5069265;28;20269;-74
2022/10/29 10:36:27;;;;;;;1.33;0.55;;;20.50;99.90;;;;;;5066939;28;20786;-76
2022/10/29 10:39:00;;;;;;;1.75;0.60;;;20.50;99.90;;;;;;5071664;28;20610;-73
2022/10/29 10:41:32;;;;;;;1.73;0.55;;;20.40;99.90;;;;;;5071214;28;20283;-75
2022/10/29 10:44:05;;;;;;;2.60;0.60;;;20.40;99.90;;;;;;5071121;28;20680;-73
2022/10/29 10:46:40;;;;;;;0.88;0.50;;;20.40;99.90;;;;;;5073650;28;20258;-76
2022/10/29 10:49:17;;;;;;;0.70;0.50;;;20.40;99.90;;;;;;5072856;28;20223;-75
2022/10/29 10:51:51;;;;;;;1.40;0.68;;;20.30;99.90;;;;;;5074158;28;20188;-75
2022/10/29 10:54:32;;;;;;;0.65;0.50;;;20.30;99.90;;;;;;5073916;28;20312;-77
2022/10/29 10:57:04;;;;;;;1.42;0.40;;;20.20;99.90;;;;;;5071719;28;20196;-76
2022/10/29 10:59:48;;;;;;;1.08;0.50;;;20.20;99.90;;;;;;5074244;28;20637;-76
2022/10/29 11:02:26;;;;;;;2.28;0.75;;;20.20;99.90;;;;;;5072501;28;20208;-76
2022/10/29 11:05:01;;;;;;;1.85;0.63;;;20.10;99.90;;;;;;5073987;28;20285;-75
2022/10/29 11:07:38;;;;;;;0.85;0.50;;;20.10;99.90;;;;;;5072382;28;20196;-76
2022/10/29 11:10:14;;;;;;;1.95;0.50;;;20.10;99.90;;;;;;5068929;28;20201;-76
2022/10/29 11:12:49;;;;;;;1.05;0.77;;;20.10;99.90;;;;;;5067604;28;20203;-75
2022/10/29 11:15:27;;;;;;;1.30;0.57;;;20.10;99.90;;;;;;5077473;28;20252;-76
2022/10/29 11:18:06;;;;;;;1.67;0.57;;;20.00;99.90;;;;;;5069857;28;20557;-75
2022/10/29 11:20:41;;;;;;;1.63;0.57;;;19.90;99.90;;;;;;5063588;28;20208;-75
2022/10/29 11:23:27;;;;;;;2.40;0.60;;;19.90;99.90;;;;;;5072156;28;20196;-77
2022/10/29 11:26:06;;;;;;;0.70;0.50;;;19.80;99.90;;;;;;5076253;28;20195;-74
2022/10/29 11:28:41;;;;;;;1.83;0.50;;;19.90;99.90;;;;;;5077089;28;20228;-74
2022/10/29 11:31:19;;;;;;;1.67;0.50;;;19.80;99.90;;;;;;5070835;28;20597;-76
2022/10/29 11:34:00;;;;;;;1.58;0.60;;;19.80;99.90;;;;;;5079238;28;20629;-75
2022/10/29 11:36:36;;;;;;;1.23;0.50;;;19.80;99.90;;;;;;5070699;28;20212;-75
2022/10/29 11:39:11;;;;;;;1.45;0.60;;;19.70;99.90;;;;;;5072686;28;20207;-71
2022/10/29 11:41:48;;;;;;;1.08;0.70;;;19.70;99.90;;;;;;5075547;28;20188;-73
2022/10/29 11:44:20;;;;;;;1.20;0.60;;;19.60;99.90;;;;;;5076046;28;20247;-75
2022/10/29 11:47:06;;;;;;;1.38;0.80;;;19.60;99.90;;;;;;5077039;28;20203;-74
2022/10/29 11:49:54;;;;;;;1.15;0.50;;;19.50;99.90;;;;;;5071707;28;20215;-73
2022/10/29 11:52:33;;;;;;;1.67;0.63;;;19.40;99.90;;;;;;5072984;28;20203;-72
2022/10/29 11:55:19;;;;;;;1.48;0.70;;;19.40;99.90;;;;;;5076066;28;20681;-73
2022/10/29 11:57:54;;;;;;;2.15;0.88;;;19.40;99.90;;;;;;5070182;28;20192;-73
2022/10/29 12:00:31;;;;;;;2.97;0.63;;;19.30;99.90;;;;;;5070710;28;20617;-73
2022/10/29 12:03:29;;;;;;;2.08;0.80;;;19.30;99.90;;;;;;5069272;28;20246;-76
2022/10/29 12:06:14;;;;;;;2.22;0.80;;;19.20;99.90;;;;;;5071122;28;20202;-73
2022/10/29 12:09:01;;;;;;;2.63;0.80;;;19.20;99.90;;;;;;5069902;28;20200;-73
2022/10/29 12:11:39;;;;;;;1.23;0.60;;;19.20;99.90;;;;;;5076107;28;20195;-72
2022/10/29 12:14:22;;;;;;;1.23;0.70;;;19.10;99.90;;;;;;5068449;28;20193;-74
2022/10/29 12:17:00;;;;;;;1.48;0.80;;;19.10;99.90;;;;;;5075164;28;20224;-75
2022/10/29 12:19:41;;;;;;;1.25;0.77;;;19.10;99.90;;;;;;5076695;28;20196;-76
2022/10/29 12:22:24;;;;;;;2.35;0.75;;;19.20;99.90;;;;;;5075345;28;20290;-74
2022/10/29 12:25:19;;;;;;;1.55;0.90;;;19.10;99.90;;;;;;5078330;28;20196;-72
2022/10/29 12:27:59;;;;;;;2.20;0.80;;;19.10;99.90;;;;;;5080073;28;20200;-72
2022/10/29 12:30:34;;;;;;;2.03;0.77;;;19.10;99.90;;;;;;5086749;28;20228;-74
2022/10/29 12:33:12;;;;;;;1.38;0.80;;;19.00;99.90;;;;;;5070746;28;20211;-75
2022/10/29 12:35:53;;;;;;;3.80;0.80;;;19.00;99.90;;;;;;5070887;28;20212;-73
2022/10/29 12:38:41;;;;;;;2.60;0.60;;;19.00;99.90;;;;;;5091991;28;20204;-74
2022/10/29 12:41:16;;;;;;;1.65;0.90;;;19.00;99.90;;;;;;5087149;28;20195;-74
2022/10/29 12:43:48;;;;;;;1.30;0.65;;;18.90;99.90;;;;;;5071646;28;20204;-72
2022/10/29 12:46:26;;;;;;;0.85;0.68;;;18.90;99.90;;;;;;5067530;28;20204;-75
2022/10/29 12:49:06;;;;;;;1.50;0.88;;;18.90;99.90;;;;;;5071194;28;20200;-73
2022/10/29 12:51:45;;;;;;;2.60;0.80;;;18.90;99.90;;;;;;5060560;28;20197;-74
2022/10/29 12:54:38;;;;;;;1.08;0.60;;;18.80;99.90;;;;;;5070103;28;20203;-73
2022/10/29 12:57:21;;;;;;;1.40;0.80;;;18.80;99.90;;;;;;5078955;28;20283;-72
2022/10/29 12:59:52;;;;;;;4.85;0.90;;;18.80;99.90;;;;;;5083768;28;20196;-72
2022/10/29 13:02:43;;;;;;;2.13;0.80;;;18.80;99.90;;;;;;5061319;28;20278;-74
2022/10/29 13:05:44;;;;;;;1.50;0.77;;;18.70;99.90;;;;;;5077741;28;20196;-73
2022/10/29 13:08:29;;;;;;;1.98;0.80;;;18.60;99.90;;;;;;5068298;28;20205;-71
2022/10/29 13:11:02;;;;;;;1.17;0.70;;;18.60;99.90;;;;;;5068634;28;20259;-74
2022/10/29 13:14:05;;;;;;;2.78;0.60;;;18.60;99.90;;;;;;5072598;28;20675;-76
2022/10/29 13:16:36;;;;;;;1.83;0.65;;;18.50;99.90;;;;;;5072047;28;20204;-71
2022/10/29 13:19:23;;;;;;;2.22;0.60;;;18.50;99.90;;;;;;5070612;28;20694;-73
2022/10/29 13:22:34;;;;;;;1.30;0.60;;;18.50;99.90;;;;;;5070581;28;20203;-74
2022/10/29 13:25:51;;;;;;;1.50;0.70;;;18.40;99.90;;;;;;5065383;28;20201;-73
2022/10/29 13:29:00;;;;;;;0.90;0.60;;;18.40;99.90;;;;;;5085110;28;20200;-71